sensor_id;sensor_type;location;lat;lon;timestamp;P1;durP1;ratioP1;P2;durP2;ratioP2
34645;SDS011;20857;47.808;12.482;2024-02-23T00:00:34;1586.40;;;829.28;;
34645;SDS011;20857;47.808;12.482;2024-02-23T00:03:00;499.25;;;469.15;;
34645;SDS011;20857;47.808;12.482;2024-02-23T00:05:25;370.33;;;346.65;;
34645;SDS011;20857;47.808;12.482;2024-02-23T00:07:51;442.38;;;405.45;;
34645;SDS011;20857;47.808;12.482;2024-02-23T00:10:16;1999.90;;;999.90;;
34645;SDS011;20857;47.808;12.482;2024-02-23T00:12:42;1999.90;;;999.90;;
34645;SDS011;20857;47.808;12.482;2024-02-23T00:15:09;1999.90;;;999.90;;
34645;SDS011;20857;47.808;12.482;2024-02-23T00:17:35;1999.90;;;999.90;;
34645;SDS011;20857;47.808;12.482;2024-02-23T00:20:00;1999.90;;;999.90;;
34645;SDS011;20857;47.808;12.482;2024-02-23T00:22:26;614.97;;;362.83;;
34645;SDS011;20857;47.808;12.482;2024-02-23T00:24:52;1082.20;;;546.78;;
34645;SDS011;20857;47.808;12.482;2024-02-23T00:27:17;910.90;;;498.70;;
34645;SDS011;20857;47.808;12.482;2024-02-23T00:29:43;733.58;;;501.92;;
34645;SDS011;20857;47.808;12.482;2024-02-23T00:32:09;1156.78;;;495.92;;
34645;SDS011;20857;47.808;12.482;2024-02-23T00:34:35;394.88;;;350.38;;
34645;SDS011;20857;47.808;12.482;2024-02-23T00:37:00;405.10;;;372.85;;
34645;SDS011;20857;47.808;12.482;2024-02-23T00:39:27;296.80;;;273.83;;
34645;SDS011;20857;47.808;12.482;2024-02-23T00:41:52;650.78;;;579.17;;
34645;SDS011;20857;47.808;12.482;2024-02-23T00:44:18;375.42;;;347.75;;
34645;SDS011;20857;47.808;12.482;2024-02-23T00:46:43;633.22;;;568.50;;
34645;SDS011;20857;47.808;12.482;2024-02-23T00:49:09;719.20;;;649.40;;
34645;SDS011;20857;47.808;12.482;2024-02-23T00:51:34;232.73;;;220.70;;
34645;SDS011;20857;47.808;12.482;2024-02-23T00:54:00;379.30;;;348.77;;
34645;SDS011;20857;47.808;12.482;2024-02-23T00:56:27;401.83;;;373.20;;
34645;SDS011;20857;47.808;12.482;2024-02-23T00:58:52;361.67;;;343.15;;
34645;SDS011;20857;47.808;12.482;2024-02-23T01:01:18;217.57;;;206.82;;
34645;SDS011;20857;47.808;12.482;2024-02-23T01:03:43;198.25;;;188.68;;
34645;SDS011;20857;47.808;12.482;2024-02-23T01:06:09;138.68;;;132.07;;
34645;SDS011;20857;47.808;12.482;2024-02-23T01:08:34;230.45;;;218.77;;
34645;SDS011;20857;47.808;12.482;2024-02-23T01:11:01;210.98;;;200.70;;
34645;SDS011;20857;47.808;12.482;2024-02-23T01:13:26;351.30;;;332.27;;
34645;SDS011;20857;47.808;12.482;2024-02-23T01:15:52;514.88;;;485.45;;
34645;SDS011;20857;47.808;12.482;2024-02-23T01:18:19;342.73;;;324.70;;
34645;SDS011;20857;47.808;12.482;2024-02-23T01:20:44;1999.90;;;999.90;;
34645;SDS011;20857;47.808;12.482;2024-02-23T01:23:10;314.17;;;297.85;;
34645;SDS011;20857;47.808;12.482;2024-02-23T01:25:35;357.90;;;338.77;;
34645;SDS011;20857;47.808;12.482;2024-02-23T01:28:02;1999.90;;;999.90;;
34645;SDS011;20857;47.808;12.482;2024-02-23T01:30:28;1999.90;;;999.90;;
34645;SDS011;20857;47.808;12.482;2024-02-23T01:32:53;181.52;;;170.73;;
34645;SDS011;20857;47.808;12.482;2024-02-23T01:35:19;328.05;;;308.55;;
34645;SDS011;20857;47.808;12.482;2024-02-23T01:37:45;1999.90;;;999.90;;
34645;SDS011;20857;47.808;12.482;2024-02-23T01:40:10;1999.90;;;999.90;;
34645;SDS011;20857;47.808;12.482;2024-02-23T01:42:36;1999.90;;;999.90;;
34645;SDS011;20857;47.808;12.482;2024-02-23T01:45:01;1999.90;;;999.90;;
34645;SDS011;20857;47.808;12.482;2024-02-23T01:47:28;1999.90;;;999.90;;
34645;SDS011;20857;47.808;12.482;2024-02-23T01:49:55;1999.90;;;999.90;;
34645;SDS011;20857;47.808;12.482;2024-02-23T01:52:22;184.18;;;173.25;;
34645;SDS011;20857;47.808;12.482;2024-02-23T01:54:48;175.88;;;164.23;;
34645;SDS011;20857;47.808;12.482;2024-02-23T01:57:14;189.10;;;174.75;;
34645;SDS011;20857;47.808;12.482;2024-02-23T01:59:40;137.10;;;128.07;;
34645;SDS011;20857;47.808;12.482;2024-02-23T02:02:06;483.58;;;448.90;;
34645;SDS011;20857;47.808;12.482;2024-02-23T02:04:31;204.25;;;192.00;;
34645;SDS011;20857;47.808;12.482;2024-02-23T02:06:57;1539.80;;;786.67;;
34645;SDS011;20857;47.808;12.482;2024-02-23T02:09:24;354.30;;;334.70;;
34645;SDS011;20857;47.808;12.482;2024-02-23T02:11:50;296.13;;;280.42;;
34645;SDS011;20857;47.808;12.482;2024-02-23T02:14:16;314.08;;;296.88;;
34645;SDS011;20857;47.808;12.482;2024-02-23T02:16:42;324.90;;;307.83;;
34645;SDS011;20857;47.808;12.482;2024-02-23T02:19:11;329.17;;;311.83;;
34645;SDS011;20857;47.808;12.482;2024-02-23T02:21:37;385.85;;;364.80;;
34645;SDS011;20857;47.808;12.482;2024-02-23T02:24:04;341.50;;;323.95;;
34645;SDS011;20857;47.808;12.482;2024-02-23T02:26:30;385.23;;;362.85;;
34645;SDS011;20857;47.808;12.482;2024-02-23T02:28:56;369.65;;;349.58;;
34645;SDS011;20857;47.808;12.482;2024-02-23T02:31:22;1999.90;;;999.90;;
34645;SDS011;20857;47.808;12.482;2024-02-23T02:33:47;330.02;;;311.90;;
34645;SDS011;20857;47.808;12.482;2024-02-23T02:36:13;1999.90;;;999.90;;
34645;SDS011;20857;47.808;12.482;2024-02-23T02:38:39;207.80;;;196.25;;
34645;SDS011;20857;47.808;12.482;2024-02-23T02:41:04;291.30;;;275.95;;
34645;SDS011;20857;47.808;12.482;2024-02-23T02:43:30;1999.90;;;999.90;;
34645;SDS011;20857;47.808;12.482;2024-02-23T02:45:56;306.17;;;289.58;;
34645;SDS011;20857;47.808;12.482;2024-02-23T02:48:22;1541.65;;;788.92;;
34645;SDS011;20857;47.808;12.482;2024-02-23T02:50:48;318.08;;;300.67;;
34645;SDS011;20857;47.808;12.482;2024-02-23T02:53:15;309.40;;;293.63;;
34645;SDS011;20857;47.808;12.482;2024-02-23T02:55:41;382.02;;;361.52;;
34645;SDS011;20857;47.808;12.482;2024-02-23T02:58:08;316.65;;;300.60;;
34645;SDS011;20857;47.808;12.482;2024-02-23T03:00:34;310.50;;;294.58;;
34645;SDS011;20857;47.808;12.482;2024-02-23T03:03:00;361.30;;;342.38;;
34645;SDS011;20857;47.808;12.482;2024-02-23T03:05:25;323.65;;;307.10;;
34645;SDS011;20857;47.808;12.482;2024-02-23T03:07:51;283.85;;;269.58;;
34645;SDS011;20857;47.808;12.482;2024-02-23T03:10:17;416.45;;;393.75;;
34645;SDS011;20857;47.808;12.482;2024-02-23T03:12:42;1528.43;;;776.60;;
34645;SDS011;20857;47.808;12.482;2024-02-23T03:15:08;1999.90;;;999.90;;
34645;SDS011;20857;47.808;12.482;2024-02-23T03:17:35;1999.90;;;999.90;;
34645;SDS011;20857;47.808;12.482;2024-02-23T03:20:01;1999.90;;;999.90;;
34645;SDS011;20857;47.808;12.482;2024-02-23T03:22:30;1999.90;;;999.90;;
34645;SDS011;20857;47.808;12.482;2024-02-23T03:24:56;1999.90;;;999.90;;
34645;SDS011;20857;47.808;12.482;2024-02-23T03:27:26;1999.90;;;999.90;;
34645;SDS011;20857;47.808;12.482;2024-02-23T03:29:53;1999.90;;;999.90;;
34645;SDS011;20857;47.808;12.482;2024-02-23T03:32:19;304.50;;;288.30;;
34645;SDS011;20857;47.808;12.482;2024-02-23T03:34:44;372.70;;;352.90;;
34645;SDS011;20857;47.808;12.482;2024-02-23T03:37:10;353.70;;;333.95;;
34645;SDS011;20857;47.808;12.482;2024-02-23T03:39:35;1999.90;;;999.90;;
34645;SDS011;20857;47.808;12.482;2024-02-23T03:42:03;1999.90;;;999.90;;
34645;SDS011;20857;47.808;12.482;2024-02-23T03:44:29;1999.90;;;999.90;;
34645;SDS011;20857;47.808;12.482;2024-02-23T03:46:56;1559.53;;;805.78;;
34645;SDS011;20857;47.808;12.482;2024-02-23T03:49:21;415.23;;;391.05;;
34645;SDS011;20857;47.808;12.482;2024-02-23T03:51:47;206.43;;;192.98;;
34645;SDS011;20857;47.808;12.482;2024-02-23T03:54:13;377.15;;;355.90;;
34645;SDS011;20857;47.808;12.482;2024-02-23T03:56:39;1999.90;;;999.90;;
34645;SDS011;20857;47.808;12.482;2024-02-23T03:59:06;1999.90;;;999.90;;
34645;SDS011;20857;47.808;12.482;2024-02-23T04:01:34;1999.90;;;999.90;;
34645;SDS011;20857;47.808;12.482;2024-02-23T04:04:03;1999.90;;;999.90;;
34645;SDS011;20857;47.808;12.482;2024-02-23T04:06:29;1541.13;;;788.58;;
34645;SDS011;20857;47.808;12.482;2024-02-23T04:08:55;1999.90;;;999.90;;
34645;SDS011;20857;47.808;12.482;2024-02-23T04:11:20;1999.90;;;999.90;;
34645;SDS011;20857;47.808;12.482;2024-02-23T04:13:46;1999.90;;;999.90;;
34645;SDS011;20857;47.808;12.482;2024-02-23T04:16:11;1999.90;;;999.90;;
34645;SDS011;20857;47.808;12.482;2024-02-23T04:18:37;1999.90;;;999.90;;
34645;SDS011;20857;47.808;12.482;2024-02-23T04:21:03;1999.90;;;999.90;;
34645;SDS011;20857;47.808;12.482;2024-02-23T04:23:28;1999.90;;;999.90;;
34645;SDS011;20857;47.808;12.482;2024-02-23T04:25:54;1999.90;;;999.90;;
34645;SDS011;20857;47.808;12.482;2024-02-23T04:28:19;1999.90;;;999.90;;
34645;SDS011;20857;47.808;12.482;2024-02-23T04:30:45;1999.90;;;999.90;;
34645;SDS011;20857;47.808;12.482;2024-02-23T04:33:11;1999.90;;;999.90;;
34645;SDS011;20857;47.808;12.482;2024-02-23T04:35:36;1999.90;;;999.90;;
34645;SDS011;20857;47.808;12.482;2024-02-23T04:38:02;1539.65;;;787.25;;
34645;SDS011;20857;47.808;12.482;2024-02-23T04:40:27;1999.90;;;999.90;;
34645;SDS011;20857;47.808;12.482;2024-02-23T04:42:53;229.80;;;214.70;;
34645;SDS011;20857;47.808;12.482;2024-02-23T04:45:19;239.57;;;226.00;;
34645;SDS011;20857;47.808;12.482;2024-02-23T04:47:44;292.80;;;276.52;;
34645;SDS011;20857;47.808;12.482;2024-02-23T04:50:11;222.45;;;209.30;;
34645;SDS011;20857;47.808;12.482;2024-02-23T04:52:37;1999.90;;;999.90;;
34645;SDS011;20857;47.808;12.482;2024-02-23T04:55:03;156.48;;;147.63;;
34645;SDS011;20857;47.808;12.482;2024-02-23T04:57:29;1999.90;;;999.90;;
34645;SDS011;20857;47.808;12.482;2024-02-23T04:59:56;1999.90;;;999.90;;
34645;SDS011;20857;47.808;12.482;2024-02-23T05:02:21;291.55;;;275.58;;
34645;SDS011;20857;47.808;12.482;2024-02-23T05:04:47;327.02;;;308.60;;
34645;SDS011;20857;47.808;12.482;2024-02-23T05:07:12;1999.90;;;999.90;;
34645;SDS011;20857;47.808;12.482;2024-02-23T05:09:38;169.07;;;158.80;;
34645;SDS011;20857;47.808;12.482;2024-02-23T05:12:05;1999.90;;;999.90;;
34645;SDS011;20857;47.808;12.482;2024-02-23T05:14:32;226.93;;;214.43;;
34645;SDS011;20857;47.808;12.482;2024-02-23T05:16:58;296.52;;;279.75;;
34645;SDS011;20857;47.808;12.482;2024-02-23T05:19:23;334.70;;;315.65;;
34645;SDS011;20857;47.808;12.482;2024-02-23T05:21:49;220.63;;;208.48;;
34645;SDS011;20857;47.808;12.482;2024-02-23T05:24:15;327.23;;;309.08;;
34645;SDS011;20857;47.808;12.482;2024-02-23T05:26:40;363.58;;;343.50;;
34645;SDS011;20857;47.808;12.482;2024-02-23T05:29:07;1550.85;;;797.83;;
34645;SDS011;20857;47.808;12.482;2024-02-23T05:31:48;227.40;;;214.00;;
34645;SDS011;20857;47.808;12.482;2024-02-23T05:34:16;307.27;;;287.52;;
34645;SDS011;20857;47.808;12.482;2024-02-23T05:36:42;276.42;;;260.80;;
34645;SDS011;20857;47.808;12.482;2024-02-23T05:39:08;319.50;;;302.00;;
34645;SDS011;20857;47.808;12.482;2024-02-23T05:41:34;247.85;;;233.23;;
34645;SDS011;20857;47.808;12.482;2024-02-23T05:44:02;332.63;;;313.05;;
34645;SDS011;20857;47.808;12.482;2024-02-23T05:46:30;390.65;;;368.67;;
34645;SDS011;20857;47.808;12.482;2024-02-23T05:48:57;345.38;;;326.40;;
34645;SDS011;20857;47.808;12.482;2024-02-23T05:51:22;1999.90;;;999.90;;
34645;SDS011;20857;47.808;12.482;2024-02-23T05:53:48;326.90;;;308.88;;
34645;SDS011;20857;47.808;12.482;2024-02-23T05:56:13;316.88;;;299.02;;
34645;SDS011;20857;47.808;12.482;2024-02-23T05:58:39;369.48;;;348.42;;
34645;SDS011;20857;47.808;12.482;2024-02-23T06:01:04;365.55;;;344.63;;
34645;SDS011;20857;47.808;12.482;2024-02-23T06:03:30;375.08;;;354.17;;
34645;SDS011;20857;47.808;12.482;2024-02-23T06:05:56;342.40;;;324.13;;
34645;SDS011;20857;47.808;12.482;2024-02-23T06:08:21;400.60;;;377.08;;
34645;SDS011;20857;47.808;12.482;2024-02-23T06:10:47;349.00;;;329.58;;
34645;SDS011;20857;47.808;12.482;2024-02-23T06:13:13;326.73;;;308.60;;
34645;SDS011;20857;47.808;12.482;2024-02-23T06:15:38;310.42;;;294.15;;
34645;SDS011;20857;47.808;12.482;2024-02-23T06:18:04;284.23;;;270.02;;
34645;SDS011;20857;47.808;12.482;2024-02-23T06:20:30;361.60;;;342.55;;
34645;SDS011;20857;47.808;12.482;2024-02-23T06:22:57;368.50;;;348.60;;
34645;SDS011;20857;47.808;12.482;2024-02-23T06:25:22;336.33;;;318.98;;
34645;SDS011;20857;47.808;12.482;2024-02-23T06:27:48;316.15;;;299.63;;
34645;SDS011;20857;47.808;12.482;2024-02-23T06:30:14;362.42;;;342.92;;
34645;SDS011;20857;47.808;12.482;2024-02-23T06:32:39;374.27;;;354.10;;
34645;SDS011;20857;47.808;12.482;2024-02-23T06:35:05;516.35;;;482.45;;
34645;SDS011;20857;47.808;12.482;2024-02-23T06:37:31;372.20;;;351.85;;
34645;SDS011;20857;47.808;12.482;2024-02-23T06:39:57;410.27;;;387.20;;
34645;SDS011;20857;47.808;12.482;2024-02-23T06:42:23;351.48;;;331.80;;
34645;SDS011;20857;47.808;12.482;2024-02-23T06:44:50;1540.38;;;787.75;;
34645;SDS011;20857;47.808;12.482;2024-02-23T06:47:16;1561.35;;;805.90;;
34645;SDS011;20857;47.808;12.482;2024-02-23T06:49:41;262.90;;;244.30;;
34645;SDS011;20857;47.808;12.482;2024-02-23T06:52:10;317.48;;;298.42;;
34645;SDS011;20857;47.808;12.482;2024-02-23T06:54:36;347.02;;;328.27;;
34645;SDS011;20857;47.808;12.482;2024-02-23T06:57:02;388.13;;;366.35;;
34645;SDS011;20857;47.808;12.482;2024-02-23T06:59:28;376.50;;;356.15;;
34645;SDS011;20857;47.808;12.482;2024-02-23T07:01:54;327.08;;;309.83;;
34645;SDS011;20857;47.808;12.482;2024-02-23T07:04:20;194.98;;;182.82;;
34645;SDS011;20857;47.808;12.482;2024-02-23T07:06:46;250.20;;;234.35;;
34645;SDS011;20857;47.808;12.482;2024-02-23T07:09:11;1999.90;;;999.90;;
34645;SDS011;20857;47.808;12.482;2024-02-23T07:11:37;343.55;;;323.35;;
34645;SDS011;20857;47.808;12.482;2024-02-23T07:14:03;298.67;;;283.08;;
34645;SDS011;20857;47.808;12.482;2024-02-23T07:16:30;282.08;;;267.92;;
34645;SDS011;20857;47.808;12.482;2024-02-23T07:18:55;350.90;;;330.60;;
34645;SDS011;20857;47.808;12.482;2024-02-23T07:21:21;331.33;;;313.65;;
34645;SDS011;20857;47.808;12.482;2024-02-23T07:23:47;331.05;;;308.08;;
34645;SDS011;20857;47.808;12.482;2024-02-23T07:26:13;356.58;;;337.38;;
34645;SDS011;20857;47.808;12.482;2024-02-23T07:28:39;391.63;;;369.67;;
34645;SDS011;20857;47.808;12.482;2024-02-23T07:31:04;329.30;;;311.85;;
34645;SDS011;20857;47.808;12.482;2024-02-23T07:33:30;365.98;;;346.10;;
34645;SDS011;20857;47.808;12.482;2024-02-23T07:35:56;341.58;;;322.98;;
34645;SDS011;20857;47.808;12.482;2024-02-23T07:38:22;205.40;;;192.27;;
34645;SDS011;20857;47.808;12.482;2024-02-23T07:40:47;358.58;;;336.95;;
34645;SDS011;20857;47.808;12.482;2024-02-23T07:43:13;300.33;;;282.17;;
34645;SDS011;20857;47.808;12.482;2024-02-23T07:45:38;352.95;;;330.75;;
34645;SDS011;20857;47.808;12.482;2024-02-23T07:48:04;326.05;;;307.63;;
34645;SDS011;20857;47.808;12.482;2024-02-23T07:50:30;321.02;;;303.60;;
34645;SDS011;20857;47.808;12.482;2024-02-23T07:52:55;289.05;;;273.80;;
34645;SDS011;20857;47.808;12.482;2024-02-23T07:55:21;248.27;;;235.15;;
34645;SDS011;20857;47.808;12.482;2024-02-23T07:57:47;264.30;;;251.20;;
34645;SDS011;20857;47.808;12.482;2024-02-23T08:00:13;312.45;;;296.45;;
34645;SDS011;20857;47.808;12.482;2024-02-23T08:02:39;387.73;;;366.58;;
34645;SDS011;20857;47.808;12.482;2024-02-23T08:05:06;298.20;;;282.55;;
34645;SDS011;20857;47.808;12.482;2024-02-23T08:07:32;302.45;;;286.92;;
34645;SDS011;20857;47.808;12.482;2024-02-23T08:09:58;251.45;;;238.80;;
34645;SDS011;20857;47.808;12.482;2024-02-23T08:12:23;274.90;;;261.00;;
34645;SDS011;20857;47.808;12.482;2024-02-23T08:14:49;252.40;;;239.13;;
34645;SDS011;20857;47.808;12.482;2024-02-23T08:17:18;230.70;;;218.65;;
34645;SDS011;20857;47.808;12.482;2024-02-23T08:19:43;232.25;;;220.30;;
34645;SDS011;20857;47.808;12.482;2024-02-23T08:22:09;328.67;;;310.65;;
34645;SDS011;20857;47.808;12.482;2024-02-23T08:24:35;264.88;;;251.23;;
34645;SDS011;20857;47.808;12.482;2024-02-23T08:27:00;292.70;;;276.88;;
34645;SDS011;20857;47.808;12.482;2024-02-23T08:29:27;1551.13;;;798.33;;
34645;SDS011;20857;47.808;12.482;2024-02-23T08:31:53;231.98;;;219.43;;
34645;SDS011;20857;47.808;12.482;2024-02-23T08:34:18;263.70;;;250.23;;
34645;SDS011;20857;47.808;12.482;2024-02-23T08:36:44;259.00;;;244.82;;
34645;SDS011;20857;47.808;12.482;2024-02-23T08:39:10;273.30;;;258.45;;
34645;SDS011;20857;47.808;12.482;2024-02-23T08:41:35;262.08;;;248.35;;
34645;SDS011;20857;47.808;12.482;2024-02-23T08:44:01;194.25;;;183.90;;
34645;SDS011;20857;47.808;12.482;2024-02-23T08:46:27;201.25;;;190.13;;
34645;SDS011;20857;47.808;12.482;2024-02-23T08:48:52;231.35;;;218.20;;
34645;SDS011;20857;47.808;12.482;2024-02-23T08:51:18;1999.90;;;999.90;;
34645;SDS011;20857;47.808;12.482;2024-02-23T08:53:43;1999.90;;;999.90;;
34645;SDS011;20857;47.808;12.482;2024-02-23T08:56:09;1533.63;;;781.78;;
34645;SDS011;20857;47.808;12.482;2024-02-23T08:58:36;1999.90;;;999.90;;
34645;SDS011;20857;47.808;12.482;2024-02-23T09:01:02;1999.90;;;999.90;;
34645;SDS011;20857;47.808;12.482;2024-02-23T09:03:29;1999.90;;;999.90;;
34645;SDS011;20857;47.808;12.482;2024-02-23T09:05:54;160.90;;;151.90;;
34645;SDS011;20857;47.808;12.482;2024-02-23T09:08:20;163.98;;;155.00;;
34645;SDS011;20857;47.808;12.482;2024-02-23T09:10:46;1549.88;;;797.00;;
34645;SDS011;20857;47.808;12.482;2024-02-23T09:13:11;247.52;;;232.45;;
34645;SDS011;20857;47.808;12.482;2024-02-23T09:15:37;261.77;;;247.55;;
34645;SDS011;20857;47.808;12.482;2024-02-23T09:18:03;1999.90;;;999.90;;
34645;SDS011;20857;47.808;12.482;2024-02-23T09:20:29;1524.07;;;772.65;;
34645;SDS011;20857;47.808;12.482;2024-02-23T09:22:54;1543.45;;;790.80;;
34645;SDS011;20857;47.808;12.482;2024-02-23T09:25:20;1524.32;;;772.97;;
34645;SDS011;20857;47.808;12.482;2024-02-23T09:27:46;1999.90;;;999.90;;
34645;SDS011;20857;47.808;12.482;2024-02-23T09:30:12;1999.90;;;999.90;;
34645;SDS011;20857;47.808;12.482;2024-02-23T09:32:38;1532.35;;;780.60;;
34645;SDS011;20857;47.808;12.482;2024-02-23T09:35:04;198.05;;;187.82;;
34645;SDS011;20857;47.808;12.482;2024-02-23T09:37:31;1999.90;;;999.90;;
34645;SDS011;20857;47.808;12.482;2024-02-23T09:39:56;1999.90;;;999.90;;
34645;SDS011;20857;47.808;12.482;2024-02-23T09:42:22;1522.07;;;770.90;;
34645;SDS011;20857;47.808;12.482;2024-02-23T09:44:58;1522.97;;;771.78;;
34645;SDS011;20857;47.808;12.482;2024-02-23T09:47:26;1999.90;;;999.90;;
34645;SDS011;20857;47.808;12.482;2024-02-23T09:49:53;1999.90;;;999.90;;
34645;SDS011;20857;47.808;12.482;2024-02-23T09:52:19;1999.90;;;999.90;;
34645;SDS011;20857;47.808;12.482;2024-02-23T09:54:46;1999.90;;;999.90;;
34645;SDS011;20857;47.808;12.482;2024-02-23T09:57:12;1999.90;;;999.90;;
34645;SDS011;20857;47.808;12.482;2024-02-23T09:59:40;1999.90;;;999.90;;
34645;SDS011;20857;47.808;12.482;2024-02-23T10:02:07;1999.90;;;999.90;;
34645;SDS011;20857;47.808;12.482;2024-02-23T10:04:36;1999.90;;;999.90;;
34645;SDS011;20857;47.808;12.482;2024-02-23T10:07:08;1999.90;;;999.90;;
34645;SDS011;20857;47.808;12.482;2024-02-23T10:09:33;1999.90;;;999.90;;
34645;SDS011;20857;47.808;12.482;2024-02-23T10:11:59;1999.90;;;999.90;;
34645;SDS011;20857;47.808;12.482;2024-02-23T10:14:25;1999.90;;;999.90;;
34645;SDS011;20857;47.808;12.482;2024-02-23T10:23:55;1999.90;;;999.90;;
34645;SDS011;20857;47.808;12.482;2024-02-23T10:26:21;1999.90;;;999.90;;
34645;SDS011;20857;47.808;12.482;2024-02-23T10:28:47;1999.90;;;999.90;;
34645;SDS011;20857;47.808;12.482;2024-02-23T10:31:13;1999.90;;;999.90;;
34645;SDS011;20857;47.808;12.482;2024-02-23T10:33:39;1999.90;;;999.90;;
34645;SDS011;20857;47.808;12.482;2024-02-23T10:36:05;1999.90;;;999.90;;
34645;SDS011;20857;47.808;12.482;2024-02-23T10:38:35;1999.90;;;999.90;;
34645;SDS011;20857;47.808;12.482;2024-02-23T10:41:05;1999.90;;;999.90;;
34645;SDS011;20857;47.808;12.482;2024-02-23T10:43:41;1999.90;;;999.90;;
34645;SDS011;20857;47.808;12.482;2024-02-23T10:46:11;1999.90;;;999.90;;
34645;SDS011;20857;47.808;12.482;2024-02-23T13:18:03;1999.90;;;999.90;;
34645;SDS011;20857;47.808;12.482;2024-02-23T13:20:29;1999.90;;;999.90;;
34645;SDS011;20857;47.808;12.482;2024-02-23T13:22:55;1999.90;;;999.90;;
34645;SDS011;20857;47.808;12.482;2024-02-23T13:25:21;1999.90;;;999.90;;
34645;SDS011;20857;47.808;12.482;2024-02-23T13:27:46;1999.90;;;999.90;;
34645;SDS011;20857;47.808;12.482;2024-02-23T13:30:12;1999.90;;;999.90;;
34645;SDS011;20857;47.808;12.482;2024-02-23T13:32:38;1999.90;;;999.90;;
34645;SDS011;20857;47.808;12.482;2024-02-23T13:35:04;1999.90;;;999.90;;
34645;SDS011;20857;47.808;12.482;2024-02-23T13:37:31;175.80;;;166.68;;
34645;SDS011;20857;47.808;12.482;2024-02-23T13:39:57;202.63;;;191.85;;
34645;SDS011;20857;47.808;12.482;2024-02-23T13:42:22;245.88;;;232.68;;
34645;SDS011;20857;47.808;12.482;2024-02-23T13:44:48;222.25;;;210.07;;
34645;SDS011;20857;47.808;12.482;2024-02-23T13:47:13;238.98;;;226.93;;
34645;SDS011;20857;47.808;12.482;2024-02-23T13:49:39;219.43;;;207.43;;
34645;SDS011;20857;47.808;12.482;2024-02-23T13:52:05;248.73;;;233.15;;
34645;SDS011;20857;47.808;12.482;2024-02-23T13:54:30;143.52;;;135.27;;
34645;SDS011;20857;47.808;12.482;2024-02-23T13:56:56;1530.13;;;778.53;;
34645;SDS011;20857;47.808;12.482;2024-02-23T13:59:21;1999.90;;;999.90;;
34645;SDS011;20857;47.808;12.482;2024-02-23T14:01:47;1999.90;;;999.90;;
34645;SDS011;20857;47.808;12.482;2024-02-23T14:04:12;1532.60;;;780.85;;
34645;SDS011;20857;47.808;12.482;2024-02-23T14:06:38;239.48;;;222.98;;
34645;SDS011;20857;47.808;12.482;2024-02-23T14:09:04;136.75;;;129.68;;
34645;SDS011;20857;47.808;12.482;2024-02-23T14:11:29;1999.90;;;999.90;;
34645;SDS011;20857;47.808;12.482;2024-02-23T14:13:56;1999.90;;;999.90;;
34645;SDS011;20857;47.808;12.482;2024-02-23T14:16:22;1999.90;;;999.90;;
34645;SDS011;20857;47.808;12.482;2024-02-23T14:18:50;1999.90;;;999.90;;
34645;SDS011;20857;47.808;12.482;2024-02-23T14:21:16;1999.90;;;999.90;;
34645;SDS011;20857;47.808;12.482;2024-02-23T14:23:43;1999.90;;;999.90;;
34645;SDS011;20857;47.808;12.482;2024-02-23T14:26:09;1523.30;;;772.10;;
34645;SDS011;20857;47.808;12.482;2024-02-23T14:28:35;1530.78;;;779.17;;
34645;SDS011;20857;47.808;12.482;2024-02-23T14:31:00;117.18;;;111.28;;
34645;SDS011;20857;47.808;12.482;2024-02-23T14:33:26;155.10;;;147.00;;
34645;SDS011;20857;47.808;12.482;2024-02-23T14:35:51;176.90;;;167.32;;
34645;SDS011;20857;47.808;12.482;2024-02-23T14:38:17;178.38;;;169.15;;
34645;SDS011;20857;47.808;12.482;2024-02-23T14:40:43;193.27;;;182.75;;
34645;SDS011;20857;47.808;12.482;2024-02-23T14:43:08;141.98;;;134.45;;
34645;SDS011;20857;47.808;12.482;2024-02-23T14:45:34;152.32;;;144.13;;
34645;SDS011;20857;47.808;12.482;2024-02-23T14:48:00;206.52;;;195.32;;
34645;SDS011;20857;47.808;12.482;2024-02-23T14:50:26;164.38;;;155.07;;
34645;SDS011;20857;47.808;12.482;2024-02-23T14:52:52;149.60;;;141.43;;
34645;SDS011;20857;47.808;12.482;2024-02-23T14:55:18;162.82;;;153.60;;
34645;SDS011;20857;47.808;12.482;2024-02-23T14:57:44;1540.50;;;788.13;;
34645;SDS011;20857;47.808;12.482;2024-02-23T15:00:10;179.80;;;170.27;;
34645;SDS011;20857;47.808;12.482;2024-02-23T15:02:37;185.30;;;175.43;;
34645;SDS011;20857;47.808;12.482;2024-02-23T15:05:04;1544.15;;;791.83;;
34645;SDS011;20857;47.808;12.482;2024-02-23T15:07:31;223.10;;;210.27;;
34645;SDS011;20857;47.808;12.482;2024-02-23T15:10:00;1999.90;;;999.90;;
34645;SDS011;20857;47.808;12.482;2024-02-23T15:12:30;1999.90;;;999.90;;
34645;SDS011;20857;47.808;12.482;2024-02-23T15:14:57;1999.90;;;999.90;;
34645;SDS011;20857;47.808;12.482;2024-02-23T15:17:22;1999.90;;;999.90;;
34645;SDS011;20857;47.808;12.482;2024-02-23T15:19:48;1999.90;;;999.90;;
34645;SDS011;20857;47.808;12.482;2024-02-23T15:22:13;1999.90;;;999.90;;
34645;SDS011;20857;47.808;12.482;2024-02-23T15:24:42;1527.88;;;776.40;;
34645;SDS011;20857;47.808;12.482;2024-02-23T15:27:10;142.48;;;134.68;;
34645;SDS011;20857;47.808;12.482;2024-02-23T15:29:36;174.13;;;165.30;;
34645;SDS011;20857;47.808;12.482;2024-02-23T15:32:01;152.20;;;144.27;;
34645;SDS011;20857;47.808;12.482;2024-02-23T15:34:28;164.05;;;155.65;;
34645;SDS011;20857;47.808;12.482;2024-02-23T15:36:53;186.43;;;177.07;;
34645;SDS011;20857;47.808;12.482;2024-02-23T15:39:19;194.95;;;184.82;;
34645;SDS011;20857;47.808;12.482;2024-02-23T15:41:45;241.07;;;228.10;;
34645;SDS011;20857;47.808;12.482;2024-02-23T15:44:11;173.52;;;164.63;;
34645;SDS011;20857;47.808;12.482;2024-02-23T15:46:36;177.20;;;167.80;;
34645;SDS011;20857;47.808;12.482;2024-02-23T15:49:02;208.50;;;197.30;;
34645;SDS011;20857;47.808;12.482;2024-02-23T15:51:28;187.40;;;177.52;;
34645;SDS011;20857;47.808;12.482;2024-02-23T15:53:58;598.58;;;343.45;;
34645;SDS011;20857;47.808;12.482;2024-02-23T15:56:26;160.35;;;152.10;;
34645;SDS011;20857;47.808;12.482;2024-02-23T15:58:52;187.00;;;177.10;;
34645;SDS011;20857;47.808;12.482;2024-02-23T16:01:19;181.73;;;172.20;;
34645;SDS011;20857;47.808;12.482;2024-02-23T16:03:45;228.18;;;215.50;;
34645;SDS011;20857;47.808;12.482;2024-02-23T16:06:10;202.40;;;191.57;;
34645;SDS011;20857;47.808;12.482;2024-02-23T16:08:42;216.27;;;205.07;;